createdAt,value
2022-11-12T00:00:30.347Z,11.66
2022-11-12T00:03:17.543Z,11.71
2022-11-12T00:06:03.687Z,11.68
2022-11-12T00:08:49.620Z,11.65
2022-11-12T00:11:35.747Z,11.64
2022-11-12T00:14:21.697Z,11.61
2022-11-12T00:17:07.716Z,11.63
2022-11-12T00:20:04.291Z,11.59
2022-11-12T00:22:54.197Z,11.57
2022-11-12T00:25:40.484Z,11.53
2022-11-12T00:28:27.785Z,11.52
2022-11-12T00:31:15.147Z,11.52
2022-11-12T00:34:02.142Z,11.50
2022-11-12T00:36:49.210Z,11.49
2022-11-12T00:39:35.256Z,11.46
2022-11-12T00:42:21.549Z,11.40
2022-11-12T00:45:08.002Z,11.44
2022-11-12T00:47:55.951Z,11.40
2022-11-12T00:50:43.162Z,11.40
2022-11-12T00:53:29.095Z,11.37
2022-11-12T00:56:15.621Z,11.36
2022-11-12T00:59:01.843Z,11.32
2022-11-12T01:01:47.974Z,11.35
2022-11-12T01:04:52.294Z,11.32
2022-11-12T01:07:57.086Z,11.27
2022-11-12T01:11:13.936Z,11.26
2022-11-12T01:14:18.878Z,11.27
2022-11-12T01:17:23.246Z,11.26
2022-11-12T01:20:27.924Z,11.25
2022-11-12T01:23:38.285Z,11.25
2022-11-12T01:26:42.730Z,11.27
2022-11-12T01:29:47.917Z,11.25
2022-11-12T01:32:52.592Z,11.22
2022-11-12T01:35:59.961Z,11.25
2022-11-12T01:39:06.044Z,11.24
2022-11-12T01:42:12.053Z,11.24
2022-11-12T01:45:16.158Z,11.26
2022-11-12T01:48:32.886Z,11.26
2022-11-12T01:51:43.063Z,11.27
2022-11-12T01:54:50.884Z,11.28
2022-11-12T01:58:04.576Z,11.27
2022-11-12T02:01:09.467Z,11.29
2022-11-12T02:04:14.783Z,11.30
2022-11-12T02:07:19.213Z,11.31
2022-11-12T02:10:25.845Z,11.33
2022-11-12T02:13:50.361Z,11.29
2022-11-12T02:16:55.473Z,11.35
2022-11-12T02:20:00.977Z,11.34
2022-11-12T02:23:06.916Z,11.38
2022-11-12T02:26:11.846Z,11.39
2022-11-12T02:29:16.220Z,11.40
2022-11-12T02:32:20.926Z,11.39
2022-11-12T02:35:25.489Z,11.41
2022-11-12T02:38:30.278Z,11.43
2022-11-12T02:41:34.964Z,11.43
2022-11-12T02:44:39.247Z,11.42
2022-11-12T02:47:43.967Z,11.43
2022-11-12T02:50:48.900Z,11.44
2022-11-12T02:53:53.530Z,11.44
2022-11-12T02:56:58.396Z,11.45
2022-11-12T03:00:05.718Z,11.46
2022-11-12T03:03:10.229Z,11.44
2022-11-12T03:06:15.082Z,11.48
2022-11-12T03:09:19.277Z,11.48
2022-11-12T03:12:23.962Z,11.49
2022-11-12T03:15:29.870Z,11.51
2022-11-12T03:18:35.462Z,11.52
2022-11-12T03:21:41.688Z,11.53
2022-11-12T03:24:46.308Z,11.53
2022-11-12T03:28:03.805Z,11.53
2022-11-12T03:31:08.513Z,11.56
2022-11-12T03:34:13.628Z,11.57
2022-11-12T03:37:18.029Z,11.57
2022-11-12T03:40:22.561Z,11.59
2022-11-12T03:43:27.685Z,11.56
2022-11-12T03:46:33.453Z,11.59
2022-11-12T03:49:38.131Z,11.59
2022-11-12T03:52:47.605Z,11.57
2022-11-12T03:55:52.059Z,11.59
2022-11-12T03:58:56.447Z,11.57
2022-11-12T04:02:01.262Z,11.58
2022-11-12T04:05:25.881Z,11.56
2022-11-12T04:08:39.976Z,11.55
2022-11-12T04:11:44.894Z,11.55
2022-11-12T04:14:49.561Z,11.54
2022-11-12T04:18:14.851Z,11.53
2022-11-12T04:21:41.025Z,11.51
2022-11-12T04:25:05.319Z,11.51
2022-11-12T04:28:10.100Z,11.48
2022-11-12T04:31:14.931Z,11.47
2022-11-12T04:34:31.669Z,11.46
2022-11-12T04:37:47.552Z,11.45
2022-11-12T04:41:10.510Z,11.41
2022-11-12T04:44:33.388Z,11.40
2022-11-12T04:47:40.508Z,11.39
2022-11-12T04:50:51.570Z,11.38
2022-11-12T04:53:55.827Z,11.38
2022-11-12T04:57:00.945Z,11.38
2022-11-12T05:00:06.327Z,11.34
2022-11-12T05:03:11.149Z,11.36
2022-11-12T05:06:34.241Z,11.35
2022-11-12T05:09:39.194Z,11.31
2022-11-12T05:12:44.119Z,11.31
2022-11-12T05:15:49.761Z,11.30
2022-11-12T05:18:54.387Z,11.29
2022-11-12T05:22:05.986Z,11.28
2022-11-12T05:25:10.540Z,11.28
2022-11-12T05:28:14.938Z,11.28
2022-11-12T05:31:19.721Z,11.23
2022-11-12T05:34:24.644Z,11.28
2022-11-12T05:37:29.177Z,11.28
2022-11-12T05:40:33.956Z,11.29
2022-11-12T05:43:38.849Z,11.28
2022-11-12T05:46:43.961Z,11.29
2022-11-12T05:49:48.357Z,11.31
2022-11-12T05:52:52.601Z,11.33
2022-11-12T05:56:04.522Z,11.32
2022-11-12T05:59:10.659Z,11.35
2022-11-12T06:02:15.113Z,11.36
2022-11-12T06:05:19.704Z,11.37
2022-11-12T06:08:24.588Z,11.38
2022-11-12T06:11:29.329Z,11.39
2022-11-12T06:14:34.127Z,11.39
2022-11-12T06:17:38.737Z,11.45
2022-11-12T06:20:44.732Z,11.43
2022-11-12T06:23:52.762Z,11.50
2022-11-12T06:26:57.245Z,11.51
2022-11-12T06:30:02.292Z,11.52
2022-11-12T06:33:06.967Z,11.53
2022-11-12T06:36:13.548Z,11.52
2022-11-12T06:39:17.824Z,11.56
2022-11-12T06:42:22.470Z,11.58
2022-11-12T06:45:27.142Z,11.59
2022-11-12T06:48:31.933Z,11.59
2022-11-12T06:51:36.995Z,11.57
2022-11-12T06:54:42.208Z,11.64
2022-11-12T06:57:51.899Z,11.64
2022-11-12T07:00:56.566Z,11.64
2022-11-12T07:04:01.076Z,11.67
2022-11-12T07:07:10.278Z,11.71
2022-11-12T07:10:16.357Z,11.72
2022-11-12T07:13:23.325Z,11.74
2022-11-12T07:16:27.643Z,11.76
2022-11-12T07:19:32.549Z,11.78
2022-11-12T07:22:39.323Z,11.80
2022-11-12T07:25:43.917Z,11.83
2022-11-12T07:28:50.327Z,11.75
2022-11-12T07:31:55.174Z,11.87
2022-11-12T07:34:59.500Z,11.90
2022-11-12T07:38:04.122Z,11.91
2022-11-12T07:41:14.770Z,11.94
2022-11-12T07:44:19.278Z,11.96
2022-11-12T07:47:24.098Z,11.98
2022-11-12T07:50:28.915Z,12.00
2022-11-12T07:53:34.175Z,12.01
2022-11-12T07:56:38.475Z,12.02
2022-11-12T07:59:46.049Z,12.06
2022-11-12T08:02:51.211Z,12.08
2022-11-12T08:05:56.436Z,12.10
2022-11-12T08:09:03.296Z,12.10
2022-11-12T08:12:08.037Z,12.07
2022-11-12T08:15:18.081Z,12.08
2022-11-12T08:18:22.830Z,12.11
2022-11-12T08:21:27.451Z,12.14
2022-11-12T08:24:32.824Z,12.18
2022-11-12T08:27:37.416Z,12.23
2022-11-12T08:30:41.789Z,12.29
2022-11-12T08:33:46.388Z,12.34
2022-11-12T08:36:51.308Z,12.38
2022-11-12T08:39:56.043Z,12.45
2022-11-12T08:43:04.728Z,12.48
2022-11-12T08:46:09.317Z,12.57
2022-11-12T08:49:13.817Z,12.60
2022-11-12T08:52:18.773Z,12.69
2022-11-12T08:55:23.452Z,12.75
2022-11-12T08:58:28.807Z,12.91
2022-11-12T09:01:34.145Z,13.04
2022-11-12T09:04:38.975Z,13.19
2022-11-12T09:07:49.826Z,13.39
2022-11-12T09:10:58.065Z,13.51
2022-11-12T09:14:02.374Z,13.62
2022-11-12T09:17:07.069Z,13.74
2022-11-12T09:20:11.818Z,13.85
2022-11-12T09:23:17.739Z,13.96
2022-11-12T09:26:22.004Z,14.07
2022-11-12T09:29:26.552Z,14.18
2022-11-12T09:32:31.435Z,14.27
2022-11-12T09:35:36.076Z,14.38
2022-11-12T09:38:40.830Z,14.53
2022-11-12T09:41:45.125Z,14.60
2022-11-12T09:44:57.915Z,14.68
2022-11-12T09:48:09.400Z,14.76
2022-11-12T09:51:24.657Z,14.88
2022-11-12T09:54:31.757Z,15.02
2022-11-12T09:57:36.455Z,15.09
2022-11-12T10:00:49.395Z,15.17
2022-11-12T10:04:28.636Z,15.20
2022-11-12T10:07:57.093Z,15.21
2022-11-12T10:11:57.692Z,15.22
2022-11-12T10:15:49.748Z,15.26
2022-11-12T10:19:00.528Z,15.32
2022-11-12T10:22:07.872Z,15.37
2022-11-12T10:25:18.695Z,15.44
2022-11-12T10:28:39.315Z,15.49
2022-11-12T10:31:43.974Z,15.54
2022-11-12T10:34:48.522Z,15.60
2022-11-12T10:38:02.157Z,15.68
2022-11-12T10:41:23.082Z,15.84
2022-11-12T10:44:27.972Z,15.97
2022-11-12T10:47:43.081Z,16.06
2022-11-12T10:50:47.532Z,16.15
2022-11-12T10:53:52.038Z,16.25
2022-11-12T10:56:56.640Z,16.29
2022-11-12T11:00:08.310Z,16.30
2022-11-12T11:03:20.098Z,16.28
2022-11-12T11:06:26.423Z,16.23
2022-11-12T11:09:31.158Z,16.17
2022-11-12T11:12:36.039Z,16.11
2022-11-12T11:15:40.664Z,15.99
2022-11-12T11:19:10.978Z,15.95
2022-11-12T11:22:46.192Z,15.88
2022-11-12T11:25:53.800Z,15.80
2022-11-12T11:29:26.529Z,15.75
2022-11-12T11:33:01.157Z,15.69
2022-11-12T11:36:13.634Z,15.57
2022-11-12T11:39:28.113Z,15.55
2022-11-12T11:42:41.346Z,15.48
2022-11-12T11:45:48.821Z,15.40
2022-11-12T11:49:02.336Z,15.33
2022-11-12T11:52:32.490Z,15.23
2022-11-12T11:55:53.841Z,15.14
2022-11-12T11:59:14.389Z,15.07
2022-11-12T12:02:37.572Z,14.98
2022-11-12T12:06:27.823Z,14.91
2022-11-12T12:09:47.058Z,14.83
2022-11-12T12:13:05.870Z,14.80
2022-11-12T12:16:26.865Z,14.75
2022-11-12T12:19:46.278Z,14.69
2022-11-12T12:22:54.360Z,14.63
2022-11-12T12:26:01.491Z,14.60
2022-11-12T12:29:33.691Z,14.57
2022-11-12T12:32:46.356Z,14.53
2022-11-12T12:35:54.764Z,14.48
2022-11-12T12:39:12.130Z,14.47
2022-11-12T12:42:23.074Z,14.44
2022-11-12T12:45:39.432Z,14.42
2022-11-12T12:48:45.420Z,14.38
2022-11-12T12:51:55.458Z,14.37
2022-11-12T12:55:00.169Z,14.36
2022-11-12T12:58:04.912Z,14.34
2022-11-12T13:01:22.520Z,14.30
2022-11-12T13:04:54.631Z,14.27
2022-11-12T13:08:08.743Z,14.26
2022-11-12T13:11:58.017Z,14.25
2022-11-12T13:15:15.935Z,14.27
2022-11-12T13:18:39.041Z,14.28
2022-11-12T13:21:44.466Z,14.29
2022-11-12T13:25:13.755Z,14.33
2022-11-12T13:28:18.702Z,14.39
2022-11-12T13:31:27.294Z,14.46
2022-11-12T13:34:34.057Z,14.49
2022-11-12T13:38:16.884Z,14.55
2022-11-12T13:41:43.952Z,14.60
2022-11-12T13:44:56.066Z,14.62
2022-11-12T13:48:01.836Z,14.61
2022-11-12T13:51:13.169Z,14.60
2022-11-12T13:54:37.381Z,14.58
2022-11-12T13:57:42.061Z,14.56
2022-11-12T14:00:57.291Z,14.55
2022-11-12T14:04:02.238Z,14.53
2022-11-12T14:07:17.434Z,14.54
2022-11-12T14:10:31.195Z,14.55
2022-11-12T14:13:42.376Z,14.56
2022-11-12T14:17:22.507Z,14.52
2022-11-12T14:20:41.622Z,14.47
2022-11-12T14:23:48.390Z,14.43
2022-11-12T14:26:53.179Z,14.39
2022-11-12T14:30:16.496Z,14.34
2022-11-12T14:33:23.158Z,14.31
2022-11-12T14:36:30.717Z,14.24
2022-11-12T14:39:41.482Z,14.25
2022-11-12T14:42:46.622Z,14.21
2022-11-12T14:49:44.033Z,14.14
2022-11-12T14:53:11.934Z,14.12
2022-11-12T14:56:35.882Z,14.07
2022-11-12T14:59:40.684Z,14.05
2022-11-12T15:02:55.663Z,14.01
2022-11-12T15:06:03.930Z,13.97
2022-11-12T15:09:09.027Z,13.91
2022-11-12T15:12:20.661Z,13.86
2022-11-12T15:15:25.288Z,13.82
2022-11-12T15:18:30.709Z,13.77
2022-11-12T15:21:35.931Z,13.68
2022-11-12T15:24:46.666Z,13.61
2022-11-12T15:27:51.550Z,13.58
2022-11-12T15:31:07.510Z,13.50
2022-11-12T15:34:28.622Z,13.41
2022-11-12T15:37:40.496Z,13.33
2022-11-12T15:40:46.632Z,13.24
2022-11-12T15:43:51.753Z,13.18
2022-11-12T15:46:56.254Z,13.09
2022-11-12T15:50:18.837Z,13.02
2022-11-12T15:53:23.126Z,12.95
2022-11-12T15:56:27.765Z,12.89
2022-11-12T15:59:32.417Z,12.82
2022-11-12T16:02:36.837Z,12.78
2022-11-12T16:05:42.357Z,12.71
2022-11-12T16:08:46.666Z,12.63
2022-11-12T16:11:51.834Z,12.60
2022-11-12T16:14:56.255Z,12.53
2022-11-12T16:18:00.819Z,12.45
2022-11-12T16:21:05.536Z,12.43
2022-11-12T16:24:10.111Z,12.37
2022-11-12T16:27:15.330Z,12.31
2022-11-12T16:30:23.640Z,12.29
2022-11-12T16:33:28.420Z,12.23
2022-11-12T16:36:33.321Z,12.20
2022-11-12T16:39:38.332Z,12.18
2022-11-12T16:42:45.836Z,12.12
2022-11-12T16:45:50.823Z,12.10
2022-11-12T16:48:55.481Z,12.06
2022-11-12T16:51:59.745Z,12.07
2022-11-12T16:55:05.147Z,12.02
2022-11-12T16:58:18.667Z,11.99
2022-11-12T17:01:27.348Z,11.98
2022-11-12T17:04:32.867Z,11.92
2022-11-12T17:07:37.605Z,11.90
2022-11-12T17:10:43.896Z,11.88
2022-11-12T17:13:49.219Z,11.84
2022-11-12T17:16:53.846Z,11.81
2022-11-12T17:19:59.304Z,11.75
2022-11-12T17:23:04.873Z,11.74
2022-11-12T17:26:15.667Z,11.70
2022-11-12T17:29:20.262Z,11.72
2022-11-12T17:32:25.139Z,11.68
2022-11-12T17:35:29.928Z,11.67
2022-11-12T17:38:34.343Z,11.65
2022-11-12T17:41:39.082Z,11.63
2022-11-12T17:44:45.705Z,11.62
2022-11-12T17:47:50.459Z,11.61
2022-11-12T17:51:09.795Z,11.60
2022-11-12T17:54:16.142Z,11.57
2022-11-12T17:57:21.020Z,11.58
2022-11-12T18:00:25.919Z,11.53
2022-11-12T18:03:30.810Z,11.53
2022-11-12T18:06:38.858Z,11.48
2022-11-12T18:09:43.477Z,11.43
2022-11-12T18:12:48.018Z,11.37
2022-11-12T18:15:52.988Z,11.39
2022-11-12T18:18:57.829Z,11.37
2022-11-12T18:22:02.476Z,11.31
2022-11-12T18:25:07.907Z,11.26
2022-11-12T18:28:12.915Z,11.22
2022-11-12T18:31:17.503Z,11.16
2022-11-12T18:34:22.096Z,11.09
2022-11-12T18:37:26.864Z,11.05
2022-11-12T18:40:31.567Z,10.98
2022-11-12T18:43:37.077Z,10.93
2022-11-12T18:46:41.286Z,10.88
2022-11-12T18:49:45.982Z,10.83
2022-11-12T18:52:50.289Z,10.80
2022-11-12T18:55:56.326Z,10.76
2022-11-12T18:59:00.755Z,10.73
2022-11-12T19:02:05.385Z,10.70
2022-11-12T19:05:10.351Z,10.62
2022-11-12T19:08:15.013Z,10.61
2022-11-12T19:11:21.905Z,10.56
2022-11-12T19:14:26.269Z,10.56
2022-11-12T19:17:31.431Z,10.52
2022-11-12T19:20:35.861Z,10.48
2022-11-12T19:23:41.508Z,10.49
2022-11-12T19:26:46.440Z,10.47
2022-11-12T19:29:51.334Z,10.43
2022-11-12T19:32:56.362Z,10.40
2022-11-12T19:36:10.912Z,10.40
2022-11-12T19:40:19.789Z,10.36
2022-11-12T19:43:25.438Z,10.33
2022-11-12T19:46:31.917Z,10.28
2022-11-12T19:49:36.549Z,10.27
2022-11-12T19:52:54.645Z,10.19
2022-11-12T19:56:00.777Z,10.18
2022-11-12T19:59:05.137Z,10.12
2022-11-12T20:02:13.431Z,10.08
2022-11-12T20:05:17.895Z,10.07
2022-11-12T20:08:24.354Z,10.02
2022-11-12T20:11:29.170Z,9.96
2022-11-12T20:15:47.972Z,9.89
2022-11-12T20:19:27.839Z,9.81
2022-11-12T20:23:01.855Z,9.78
2022-11-12T20:26:08.641Z,9.76
2022-11-12T20:29:13.289Z,9.72
2022-11-12T20:32:19.223Z,9.72
2022-11-12T20:35:24.369Z,9.67
2022-11-12T20:38:29.301Z,9.67
2022-11-12T20:41:34.425Z,9.63
2022-11-12T20:44:39.186Z,9.62
2022-11-12T20:47:43.783Z,9.60
2022-11-12T20:52:04.349Z,9.56
2022-11-12T20:55:10.889Z,9.50
2022-11-12T20:58:15.632Z,9.43
2022-11-12T21:01:21.875Z,9.45
2022-11-12T21:04:26.555Z,9.43
2022-11-12T21:07:31.195Z,9.40
2022-11-12T21:10:35.615Z,9.37
2022-11-12T21:13:40.857Z,9.37
2022-11-12T21:16:45.286Z,9.36
2022-11-12T21:19:49.858Z,9.32
2022-11-12T21:22:59.329Z,9.27
2022-11-12T21:26:21.707Z,9.23
2022-11-12T21:29:26.265Z,9.21
2022-11-12T21:32:30.660Z,9.17
2022-11-12T21:35:35.135Z,9.13
2022-11-12T21:38:39.908Z,9.07
2022-11-12T21:41:44.678Z,9.07
2022-11-12T21:44:49.360Z,9.04
2022-11-12T21:47:54.155Z,9.01
2022-11-12T21:51:09.546Z,8.96
2022-11-12T21:55:18.980Z,8.93
2022-11-12T21:58:23.489Z,8.91
2022-11-12T22:01:31.388Z,8.89
2022-11-12T22:04:36.195Z,8.86
2022-11-12T22:07:40.697Z,8.83
2022-11-12T22:10:45.248Z,8.76
2022-11-12T22:13:50.166Z,8.79
2022-11-12T22:16:54.516Z,8.75
2022-11-12T22:19:59.279Z,8.72
2022-11-12T22:23:03.858Z,8.70
2022-11-12T22:26:11.513Z,8.67
2022-11-12T22:29:16.124Z,8.65
2022-11-12T22:32:19.993Z,8.62
2022-11-12T22:35:24.141Z,8.62
2022-11-12T22:38:42.305Z,8.54
2022-11-12T22:41:46.919Z,8.51
2022-11-12T22:44:52.772Z,8.47
2022-11-12T22:47:59.262Z,8.46
2022-11-12T22:51:05.713Z,8.43
2022-11-12T22:54:10.236Z,8.40
2022-11-12T22:57:14.581Z,8.39
2022-11-12T23:00:20.090Z,8.35
2022-11-12T23:03:24.956Z,8.34
2022-11-12T23:06:30.233Z,8.33
2022-11-12T23:09:35.170Z,8.30
2022-11-12T23:12:39.819Z,8.25
2022-11-12T23:15:45.755Z,8.21
2022-11-12T23:18:51.570Z,8.20
2022-11-12T23:21:56.266Z,8.21
2022-11-12T23:25:00.983Z,8.19
2022-11-12T23:28:07.747Z,8.18
2022-11-12T23:31:22.922Z,8.16
2022-11-12T23:34:27.497Z,8.14
2022-11-12T23:37:32.634Z,8.14
2022-11-12T23:40:37.360Z,8.15
2022-11-12T23:43:42.725Z,8.13
2022-11-12T23:46:46.840Z,8.08
2022-11-12T23:49:51.088Z,8.07
2022-11-12T23:52:55.749Z,8.02
2022-11-12T23:56:01.616Z,8.02
2022-11-12T23:59:06.359Z,8.00
